Time;durP1;ratioP1;P1;durP2;ratioP2;P2;SDS_P1;SDS_P2;PMS_P1;PMS_P2;Temp;Humidity;BMP_temperature;BMP_pressure;BME280_temperature;BME280_humidity;BME280_pressure;Samples;Min_cycle;Max_cycle;Signal;HPM_P1;HPM_P2
2024/02/17 00:38:24;;;;;;;5.22;4.72;;;;;;;;;;5119436;22;20198;-95
2024/02/17 00:40:51;;;;;;;6.00;5.50;;;;;;;;;;5040190;28;20187;-94
2024/02/17 00:43:19;;;;;;;6.22;5.53;;;;;;;;;;5039641;28;20198;-93
2024/02/17 00:45:48;;;;;;;6.15;5.57;;;;;;;;;;5039581;28;20202;-93
2024/02/17 00:48:16;;;;;;;5.55;5.07;;;;;;;;;;5038775;28;20199;-94
2024/02/17 01:50:29;;;;;;;6.50;5.90;;;;;;;;;;5700913;22;20264;-95
2024/02/17 01:52:58;;;;;;;6.68;6.13;;;;;;;;;;5036804;28;20186;-94
2024/02/17 01:55:26;;;;;;;7.20;6.18;;;;;;;;;;5037113;28;20227;-93
2024/02/17 01:57:54;;;;;;;8.35;7.55;;;;;;;;;;5037776;28;20203;-95
2024/02/17 02:00:22;;;;;;;9.52;8.57;;;;;;;;;;5036313;28;20246;-96
2024/02/17 02:02:50;;;;;;;8.43;7.57;;;;;;;;;;5035213;28;20207;-93
2024/02/17 03:05:04;;;;;;;7.88;7.18;;;;;;;;;;5728467;22;20284;-94
2024/02/17 03:07:32;;;;;;;7.72;6.20;;;;;;;;;;5035640;28;20195;-94
2024/02/17 03:10:00;;;;;;;8.25;7.45;;;;;;;;;;5037312;28;20187;-93
2024/02/17 03:12:28;;;;;;;8.82;7.60;;;;;;;;;;5038651;28;20206;-94
2024/02/17 03:14:56;;;;;;;7.40;6.72;;;;;;;;;;5041138;28;20338;-94
2024/02/17 04:19:46;;;;;;;10.70;9.57;;;;;;;;;;5134443;22;20238;-94
2024/02/17 04:22:15;;;;;;;10.25;8.05;;;;;;;;;;5039242;28;20194;-94
2024/02/17 04:24:42;;;;;;;8.52;7.70;;;;;;;;;;5038911;28;20217;-95
2024/02/17 04:27:10;;;;;;;9.00;8.02;;;;;;;;;;5039854;28;20229;-94
2024/02/17 04:29:38;;;;;;;9.02;8.18;;;;;;;;;;5039948;28;20241;-94
2024/02/17 08:11:39;;;;;;;4.60;3.92;;;;;;;;;;5037975;28;20214;-94
2024/02/17 08:14:07;;;;;;;4.85;4.35;;;;;;;;;;5040111;28;20223;-95
2024/02/17 08:16:35;;;;;;;4.82;4.10;;;;;;;;;;5040161;28;20225;-95
2024/02/17 08:19:03;;;;;;;7.13;5.10;;;;;;;;;;5040351;28;20209;-94
2024/02/17 08:21:30;;;;;;;7.78;4.13;;;;;;;;;;5039927;28;20207;-95
2024/02/17 08:23:58;;;;;;;4.85;3.55;;;;;;;;;;5039857;28;20210;-96
2024/02/17 13:55:11;;;;;;;5.18;4.75;;;;;;;;;;5036617;28;20218;-89
2024/02/17 13:57:39;;;;;;;4.40;4.00;;;;;;;;;;5038550;28;20203;-89
2024/02/17 14:00:09;;;;;;;4.88;4.38;;;;;;;;;;5038728;28;20179;-89
2024/02/17 14:02:37;;;;;;;4.18;3.78;;;;;;;;;;5038092;28;20210;-89
2024/02/17 14:05:06;;;;;;;4.72;4.32;;;;;;;;;;5038025;28;20187;-90
2024/02/17 14:07:33;;;;;;;8.80;6.55;;;;;;;;;;5038025;28;20187;-89
2024/02/17 14:10:01;;;;;;;10.05;5.65;;;;;;;;;;5038100;28;20243;-89
2024/02/17 14:12:30;;;;;;;7.18;5.57;;;;;;;;;;5037950;28;20203;-89
2024/02/17 14:14:59;;;;;;;7.03;5.28;;;;;;;;;;5038253;28;20226;-89
2024/02/17 14:17:28;;;;;;;6.53;4.60;;;;;;;;;;5038185;28;20175;-87
2024/02/17 14:19:55;;;;;;;4.40;4.00;;;;;;;;;;5038449;28;20206;-90
2024/02/17 14:22:23;;;;;;;5.70;5.20;;;;;;;;;;5038094;28;20239;-89
2024/02/17 14:24:52;;;;;;;5.65;5.10;;;;;;;;;;5037949;28;20210;-86
2024/02/17 14:27:20;;;;;;;5.75;5.13;;;;;;;;;;5037868;28;20195;-88
2024/02/17 14:29:54;;;;;;;5.90;5.10;;;;;;;;;;5038008;28;20207;-88
2024/02/17 14:32:22;;;;;;;4.88;4.32;;;;;;;;;;5037921;28;20183;-88
2024/02/17 14:34:49;;;;;;;5.53;4.90;;;;;;;;;;5038283;28;20179;-89
2024/02/17 14:37:17;;;;;;;4.35;3.92;;;;;;;;;;5038191;28;20179;-89
2024/02/17 14:39:44;;;;;;;5.18;4.68;;;;;;;;;;5038276;28;20218;-88
2024/02/17 14:42:12;;;;;;;7.00;5.20;;;;;;;;;;5042626;28;20290;-89
2024/02/17 14:44:40;;;;;;;4.45;4.00;;;;;;;;;;5057869;28;20178;-87
2024/02/17 14:47:09;;;;;;;5.68;5.05;;;;;;;;;;5057508;28;20202;-87
2024/02/17 14:49:37;;;;;;;7.07;5.35;;;;;;;;;;5057559;28;20206;-87
2024/02/17 14:52:05;;;;;;;7.05;5.80;;;;;;;;;;5057386;28;20186;-86
2024/02/17 14:54:33;;;;;;;5.45;4.68;;;;;;;;;;5057529;28;20244;-85
2024/02/17 14:57:01;;;;;;;6.30;5.70;;;;;;;;;;5057450;28;20193;-85
2024/02/17 14:59:28;;;;;;;6.03;4.55;;;;;;;;;;5057635;28;20224;-88
2024/02/17 15:01:55;;;;;;;6.18;5.57;;;;;;;;;;5046918;28;20263;-90
2024/02/17 15:04:24;;;;;;;5.65;5.10;;;;;;;;;;5042863;28;20285;-87
2024/02/17 15:06:52;;;;;;;5.95;5.35;;;;;;;;;;5057206;28;20186;-87
2024/02/17 15:09:20;;;;;;;6.47;5.82;;;;;;;;;;5060322;28;20186;-90
2024/02/17 15:11:47;;;;;;;6.70;5.88;;;;;;;;;;5040447;28;20194;-87
2024/02/17 15:14:15;;;;;;;5.10;4.60;;;;;;;;;;5054561;28;20289;-87
2024/02/17 15:16:43;;;;;;;7.50;5.85;;;;;;;;;;5060838;28;20249;-87
2024/02/17 15:19:10;;;;;;;6.15;5.55;;;;;;;;;;5060871;28;20218;-88
2024/02/17 15:21:39;;;;;;;5.90;5.30;;;;;;;;;;5059739;28;20232;-87
2024/02/17 15:24:07;;;;;;;5.57;4.45;;;;;;;;;;5060615;28;20217;-87
2024/02/17 15:26:34;;;;;;;3.92;3.60;;;;;;;;;;5060450;28;20485;-87
2024/02/17 15:29:02;;;;;;;6.05;4.07;;;;;;;;;;5061099;28;20221;-87
2024/02/17 15:31:30;;;;;;;6.28;4.78;;;;;;;;;;5060598;28;20190;-87
2024/02/17 15:33:57;;;;;;;6.18;4.97;;;;;;;;;;5057302;28;20210;-86
2024/02/17 15:36:25;;;;;;;5.20;4.70;;;;;;;;;;5060468;28;20217;-87
2024/02/17 15:38:54;;;;;;;4.57;3.80;;;;;;;;;;5060877;28;20233;-88
2024/02/17 15:41:22;;;;;;;5.28;4.18;;;;;;;;;;5055347;28;20706;-88
2024/02/17 15:43:49;;;;;;;3.78;3.47;;;;;;;;;;5053628;28;20253;-87
2024/02/17 15:46:17;;;;;;;3.25;2.97;;;;;;;;;;5037259;28;20306;-87
2024/02/17 15:48:45;;;;;;;3.55;3.25;;;;;;;;;;5036128;28;20622;-87
2024/02/17 15:51:13;;;;;;;3.15;2.92;;;;;;;;;;5036168;28;20194;-88
2024/02/17 15:53:41;;;;;;;4.68;3.40;;;;;;;;;;5035930;28;20642;-86
2024/02/17 15:56:16;;;;;;;3.58;3.28;;;;;;;;;;5035981;28;20195;-87
2024/02/17 15:58:44;;;;;;;3.90;3.50;;;;;;;;;;5035845;28;20194;-87
2024/02/17 16:01:11;;;;;;;4.60;3.88;;;;;;;;;;5035951;28;20209;-87
2024/02/17 16:03:39;;;;;;;5.15;4.68;;;;;;;;;;5035663;28;20306;-87
2024/02/17 16:06:07;;;;;;;4.10;3.60;;;;;;;;;;5035924;28;20588;-87
2024/02/17 16:08:36;;;;;;;3.05;2.72;;;;;;;;;;5035671;28;20910;-87
2024/02/17 16:11:04;;;;;;;4.35;3.95;;;;;;;;;;5035674;28;20237;-87
2024/02/17 16:13:33;;;;;;;4.93;4.18;;;;;;;;;;5035623;28;20225;-88
2024/02/17 16:16:01;;;;;;;3.92;3.25;;;;;;;;;;5035452;28;20195;-88
2024/02/17 16:18:30;;;;;;;4.13;3.72;;;;;;;;;;5035315;28;20659;-87
2024/02/17 16:20:57;;;;;;;4.63;3.45;;;;;;;;;;5034003;28;20231;-87
2024/02/17 16:23:25;;;;;;;5.32;4.78;;;;;;;;;;5035472;28;20653;-89
2024/02/17 16:25:53;;;;;;;5.30;4.80;;;;;;;;;;5035517;28;20202;-87
2024/02/17 16:28:21;;;;;;;4.68;4.25;;;;;;;;;;5035550;28;20281;-86
2024/02/17 16:30:50;;;;;;;3.90;3.60;;;;;;;;;;5035407;28;20297;-88
2024/02/17 16:33:17;;;;;;;3.65;3.35;;;;;;;;;;5035400;28;20215;-87
2024/02/17 16:35:45;;;;;;;5.68;3.75;;;;;;;;;;5034686;28;20214;-88
2024/02/17 16:38:13;;;;;;;5.35;4.35;;;;;;;;;;5035099;28;20559;-88
2024/02/17 16:40:41;;;;;;;4.85;4.43;;;;;;;;;;5034525;28;20226;-88
2024/02/17 16:43:08;;;;;;;3.40;3.10;;;;;;;;;;5033250;28;20606;-88
2024/02/17 16:45:36;;;;;;;2.65;2.45;;;;;;;;;;5034512;28;20293;-88
2024/02/17 16:48:05;;;;;;;2.70;2.50;;;;;;;;;;5034626;28;20261;-88
2024/02/17 16:50:33;;;;;;;3.97;3.55;;;;;;;;;;5034406;28;20652;-87
2024/02/17 16:53:00;;;;;;;4.15;3.67;;;;;;;;;;5034122;28;20220;-88
2024/02/17 16:55:28;;;;;;;4.20;2.78;;;;;;;;;;5034223;28;20206;-88
2024/02/17 16:57:56;;;;;;;5.32;4.65;;;;;;;;;;5034217;28;20210;-88
2024/02/17 17:00:24;;;;;;;4.32;3.85;;;;;;;;;;5033979;28;20228;-88
2024/02/17 17:02:52;;;;;;;4.70;3.97;;;;;;;;;;5034129;28;20305;-88
2024/02/17 17:05:20;;;;;;;3.63;3.33;;;;;;;;;;5034425;28;20603;-88
2024/02/17 17:07:48;;;;;;;3.72;3.33;;;;;;;;;;5033968;28;20285;-88
2024/02/17 17:10:16;;;;;;;3.25;2.95;;;;;;;;;;5034411;28;20208;-88
2024/02/17 17:12:43;;;;;;;2.83;2.60;;;;;;;;;;5033754;28;20301;-88
2024/02/17 17:15:11;;;;;;;2.90;2.70;;;;;;;;;;5043548;28;20229;-88
2024/02/17 17:17:39;;;;;;;3.33;2.97;;;;;;;;;;5033864;28;20650;-88
2024/02/17 17:20:09;;;;;;;2.78;2.50;;;;;;;;;;5034028;28;20222;-88
2024/02/17 17:22:38;;;;;;;3.08;2.53;;;;;;;;;;5033454;28;20308;-89
2024/02/17 17:25:07;;;;;;;2.03;1.92;;;;;;;;;;5034006;28;20561;-88
2024/02/17 17:27:35;;;;;;;2.50;2.30;;;;;;;;;;5036437;28;20199;-88
2024/02/17 17:30:03;;;;;;;2.72;2.50;;;;;;;;;;5033950;28;20202;-88
2024/02/17 17:32:30;;;;;;;3.45;2.53;;;;;;;;;;5043150;28;20238;-87
2024/02/17 17:34:58;;;;;;;3.60;3.28;;;;;;;;;;5033724;28;20209;-88
2024/02/17 17:37:25;;;;;;;2.92;2.47;;;;;;;;;;5033809;28;20729;-87
2024/02/17 17:39:54;;;;;;;3.28;2.90;;;;;;;;;;5033577;28;20206;-88
2024/02/17 17:42:22;;;;;;;2.80;2.60;;;;;;;;;;5033222;28;20285;-88
2024/02/17 17:44:50;;;;;;;2.80;2.60;;;;;;;;;;5033284;28;20286;-87
2024/02/17 17:47:17;;;;;;;2.65;2.45;;;;;;;;;;5033331;28;20248;-88
2024/02/17 17:49:45;;;;;;;2.95;2.75;;;;;;;;;;5033685;28;20195;-88
2024/02/17 17:52:13;;;;;;;3.50;3.00;;;;;;;;;;5035051;28;20281;-87
2024/02/17 17:54:42;;;;;;;3.47;2.75;;;;;;;;;;5033294;28;20675;-88
2024/02/17 17:57:11;;;;;;;3.13;2.83;;;;;;;;;;5033380;28;20579;-88
2024/02/17 17:59:39;;;;;;;3.42;2.83;;;;;;;;;;5033236;28;20639;-88
2024/02/17 18:02:06;;;;;;;2.75;2.55;;;;;;;;;;5038112;28;20285;-88
2024/02/17 18:04:35;;;;;;;4.78;3.95;;;;;;;;;;5051665;28;20194;-87
2024/02/17 18:07:02;;;;;;;3.35;3.05;;;;;;;;;;5051265;28;20261;-87
2024/02/17 18:09:30;;;;;;;4.60;4.20;;;;;;;;;;5050830;28;20225;-87
2024/02/17 18:11:57;;;;;;;3.88;3.55;;;;;;;;;;5034233;28;20301;-88
2024/02/17 18:14:26;;;;;;;2.90;2.70;;;;;;;;;;5034448;28;20309;-87
2024/02/17 18:16:54;;;;;;;3.30;3.00;;;;;;;;;;5034289;28;20588;-87
2024/02/17 18:19:21;;;;;;;3.58;2.75;;;;;;;;;;5033667;28;20206;-88
2024/02/17 18:21:49;;;;;;;3.53;3.22;;;;;;;;;;5032563;28;20324;-87
2024/02/17 18:24:17;;;;;;;3.10;2.80;;;;;;;;;;5032744;28;20601;-88
2024/02/17 18:26:45;;;;;;;3.55;2.97;;;;;;;;;;5032666;28;20206;-87
2024/02/17 18:29:12;;;;;;;6.63;4.00;;;;;;;;;;5032947;28;20221;-87
2024/02/17 18:31:42;;;;;;;4.97;4.22;;;;;;;;;;5031898;28;20293;-87
2024/02/17 18:34:09;;;;;;;3.63;3.33;;;;;;;;;;5032573;28;20222;-88
2024/02/17 18:36:37;;;;;;;3.88;3.47;;;;;;;;;;5032748;28;20574;-87
2024/02/17 18:39:04;;;;;;;3.45;3.15;;;;;;;;;;5032702;28;20209;-88
2024/02/17 18:41:32;;;;;;;5.70;4.55;;;;;;;;;;5032526;28;20222;-87
2024/02/17 18:43:59;;;;;;;4.15;3.53;;;;;;;;;;5031473;28;20225;-87
2024/02/17 18:46:27;;;;;;;3.35;3.15;;;;;;;;;;5042706;28;20198;-87
2024/02/17 18:48:56;;;;;;;4.88;3.65;;;;;;;;;;5056363;28;20232;-87
2024/02/17 18:51:26;;;;;;;4.53;4.13;;;;;;;;;;5056989;28;20201;-87
2024/02/17 18:53:53;;;;;;;3.90;3.60;;;;;;;;;;5057681;28;20253;-87
2024/02/17 18:56:22;;;;;;;4.70;4.30;;;;;;;;;;5041149;28;20297;-87
2024/02/17 18:58:50;;;;;;;15.77;6.80;;;;;;;;;;5033201;28;20190;-87
2024/02/17 19:01:17;;;;;;;5.60;4.43;;;;;;;;;;5032796;28;20511;-87
2024/02/17 19:03:49;;;;;;;4.00;3.70;;;;;;;;;;5032796;28;20646;-87
2024/02/17 19:06:18;;;;;;;3.75;3.35;;;;;;;;;;5032717;28;20202;-87
2024/02/17 19:08:45;;;;;;;5.32;4.82;;;;;;;;;;5032482;28;20229;-87
2024/02/17 19:11:13;;;;;;;3.95;3.55;;;;;;;;;;5032428;28;20584;-87
2024/02/17 19:13:41;;;;;;;4.88;4.47;;;;;;;;;;5032472;28;20309;-88
2024/02/17 19:16:09;;;;;;;4.47;3.95;;;;;;;;;;5032433;28;20461;-87
2024/02/17 19:18:37;;;;;;;4.95;4.15;;;;;;;;;;5032982;28;20289;-87
2024/02/17 19:21:05;;;;;;;4.40;4.00;;;;;;;;;;5033154;28;20225;-87
2024/02/17 19:23:34;;;;;;;5.53;4.78;;;;;;;;;;5032953;28;20759;-87
2024/02/17 19:26:01;;;;;;;5.47;4.88;;;;;;;;;;5032713;28;20208;-87
2024/02/17 19:28:29;;;;;;;5.50;4.43;;;;;;;;;;5032606;28;20264;-87
2024/02/17 19:30:57;;;;;;;5.18;4.72;;;;;;;;;;5032814;28;20683;-87
2024/02/17 19:33:26;;;;;;;6.28;5.68;;;;;;;;;;5032478;28;20767;-87
2024/02/17 19:35:54;;;;;;;7.25;6.55;;;;;;;;;;5032731;28;20706;-87
2024/02/17 19:38:22;;;;;;;8.18;7.38;;;;;;;;;;5032797;28;20580;-88
2024/02/17 19:40:51;;;;;;;8.85;8.05;;;;;;;;;;5032527;28;20206;-87
2024/02/17 19:43:18;;;;;;;8.38;7.25;;;;;;;;;;5032432;28;20226;-88
2024/02/17 19:45:46;;;;;;;6.57;5.90;;;;;;;;;;5038978;28;20258;-87
2024/02/17 19:48:13;;;;;;;5.63;5.13;;;;;;;;;;5033476;28;20340;-87
2024/02/17 19:50:41;;;;;;;5.60;5.10;;;;;;;;;;5034430;28;20716;-88
2024/02/17 19:53:08;;;;;;;6.07;5.57;;;;;;;;;;5120080;22;20211;-92
2024/02/17 19:55:36;;;;;;;6.20;5.60;;;;;;;;;;5029620;28;20234;-93
2024/02/17 19:58:05;;;;;;;7.07;6.38;;;;;;;;;;5035244;28;20203;-92
2024/02/17 20:00:33;;;;;;;6.55;5.25;;;;;;;;;;5036386;28;20202;-92
2024/02/17 20:03:01;;;;;;;5.47;4.97;;;;;;;;;;5037526;28;20231;-93
2024/02/17 20:05:29;;;;;;;4.90;4.35;;;;;;;;;;5034587;28;20233;-93
2024/02/17 20:07:56;;;;;;;4.57;4.10;;;;;;;;;;5037342;28;20187;-93
2024/02/17 20:10:25;;;;;;;4.50;4.10;;;;;;;;;;5036787;28;20182;-92
2024/02/17 20:12:53;;;;;;;5.25;4.50;;;;;;;;;;5036033;28;20218;-92
2024/02/17 20:15:22;;;;;;;6.53;4.85;;;;;;;;;;5037918;28;20211;-94
2024/02/17 20:17:49;;;;;;;5.40;4.90;;;;;;;;;;5029256;28;20223;-92
2024/02/17 20:20:18;;;;;;;4.78;4.32;;;;;;;;;;5033317;28;20211;-93
2024/02/17 20:22:46;;;;;;;4.18;3.78;;;;;;;;;;5034160;28;20237;-93
2024/02/17 20:25:13;;;;;;;4.70;4.30;;;;;;;;;;5036139;28;20200;-92
2024/02/17 20:27:41;;;;;;;4.78;4.38;;;;;;;;;;5030249;28;20203;-93
2024/02/17 20:30:09;;;;;;;4.15;3.85;;;;;;;;;;5035612;28;20226;-92
2024/02/17 20:32:38;;;;;;;4.15;3.75;;;;;;;;;;5034424;28;20214;-93
2024/02/17 20:35:07;;;;;;;5.65;4.90;;;;;;;;;;5032706;28;20246;-93
2024/02/17 20:37:34;;;;;;;5.13;4.72;;;;;;;;;;5035036;28;20214;-93
2024/02/17 20:40:04;;;;;;;5.50;5.00;;;;;;;;;;5034127;28;20203;-93
2024/02/17 20:42:31;;;;;;;7.00;6.30;;;;;;;;;;5032900;28;20226;-92
2024/02/17 20:44:59;;;;;;;6.95;6.25;;;;;;;;;;5028182;28;20258;-93
2024/02/17 20:47:26;;;;;;;5.28;4.78;;;;;;;;;;5029528;28;20203;-93
2024/02/17 20:49:55;;;;;;;5.55;5.03;;;;;;;;;;5030706;28;20195;-92
2024/02/17 20:52:23;;;;;;;5.28;4.78;;;;;;;;;;5033762;28;20203;-93
2024/02/17 20:54:50;;;;;;;7.63;5.80;;;;;;;;;;5030564;28;20245;-93
2024/02/17 20:57:18;;;;;;;5.78;5.20;;;;;;;;;;5035049;28;20199;-92
2024/02/17 20:59:47;;;;;;;7.13;6.43;;;;;;;;;;5032421;28;20207;-93
2024/02/17 21:02:14;;;;;;;4.78;4.38;;;;;;;;;;5033487;28;20227;-93
2024/02/17 21:04:42;;;;;;;5.53;5.10;;;;;;;;;;5035346;28;20271;-93
2024/02/17 21:07:10;;;;;;;5.00;4.35;;;;;;;;;;5035715;28;20203;-93
2024/02/17 21:09:37;;;;;;;5.20;4.70;;;;;;;;;;5031931;28;20218;-92
2024/02/17 21:12:06;;;;;;;4.97;4.43;;;;;;;;;;5035644;28;20230;-93
2024/02/17 21:14:33;;;;;;;5.30;4.82;;;;;;;;;;5034896;28;20254;-92
2024/02/17 21:17:01;;;;;;;6.15;5.10;;;;;;;;;;5034452;28;20222;-91
2024/02/17 21:19:29;;;;;;;5.53;4.93;;;;;;;;;;5034290;28;20222;-92
2024/02/17 21:21:57;;;;;;;4.55;4.15;;;;;;;;;;5035533;28;20203;-92
2024/02/17 21:24:26;;;;;;;5.95;5.45;;;;;;;;;;5033848;28;20222;-93
2024/02/17 21:26:54;;;;;;;5.60;5.10;;;;;;;;;;5033114;28;20226;-93
2024/02/17 21:29:22;;;;;;;4.80;4.22;;;;;;;;;;5035065;28;20234;-91
2024/02/17 21:31:49;;;;;;;3.38;3.08;;;;;;;;;;5030788;28;20203;-92
2024/02/17 21:34:17;;;;;;;4.30;3.80;;;;;;;;;;5028859;28;20243;-93
2024/02/17 21:36:44;;;;;;;4.55;4.15;;;;;;;;;;5034756;28;20203;-92
2024/02/17 21:39:14;;;;;;;3.70;3.40;;;;;;;;;;5034783;28;20210;-92
2024/02/17 21:41:43;;;;;;;5.75;5.15;;;;;;;;;;5034733;28;20195;-92
2024/02/17 21:44:12;;;;;;;5.28;4.78;;;;;;;;;;5032040;28;20247;-92
2024/02/17 21:46:39;;;;;;;5.10;4.43;;;;;;;;;;5029492;28;20210;-93
2024/02/17 21:49:07;;;;;;;5.95;5.35;;;;;;;;;;5026646;28;20223;-94
2024/02/17 21:51:35;;;;;;;4.78;4.32;;;;;;;;;;5031593;28;20219;-92
2024/02/17 21:54:03;;;;;;;5.50;5.00;;;;;;;;;;5033657;28;20218;-93
2024/02/17 21:56:30;;;;;;;6.53;5.38;;;;;;;;;;5034482;28;20199;-93
2024/02/17 21:58:59;;;;;;;4.45;4.05;;;;;;;;;;5035734;28;20206;-93
2024/02/17 22:01:27;;;;;;;5.00;4.55;;;;;;;;;;5034434;28;20210;-93
2024/02/17 22:03:54;;;;;;;6.88;6.03;;;;;;;;;;5034841;28;20238;-92
2024/02/17 22:06:22;;;;;;;8.30;7.40;;;;;;;;;;5035207;28;20207;-92
2024/02/17 22:08:50;;;;;;;8.80;7.68;;;;;;;;;;5033623;28;20198;-93
2024/02/17 22:11:17;;;;;;;7.32;6.63;;;;;;;;;;5034178;28;20270;-92
2024/02/17 22:13:45;;;;;;;6.68;6.07;;;;;;;;;;5035159;28;20234;-93
2024/02/17 22:16:14;;;;;;;6.00;4.65;;;;;;;;;;5031994;28;20266;-92
2024/02/17 22:18:42;;;;;;;5.45;4.95;;;;;;;;;;5033219;28;20195;-92
2024/02/17 22:21:09;;;;;;;5.38;4.88;;;;;;;;;;5033838;28;20214;-92
2024/02/17 22:23:37;;;;;;;5.57;5.07;;;;;;;;;;5032328;28;20226;-92
2024/02/17 22:26:05;;;;;;;4.68;4.25;;;;;;;;;;5030886;28;20278;-92
2024/02/17 22:28:33;;;;;;;7.50;6.00;;;;;;;;;;5030965;28;20214;-93
2024/02/17 22:31:00;;;;;;;8.57;6.00;;;;;;;;;;5031780;28;20217;-93
2024/02/17 22:33:30;;;;;;;5.53;5.03;;;;;;;;;;5037544;28;20207;-94
2024/02/17 22:35:59;;;;;;;7.60;6.03;;;;;;;;;;5037972;28;20217;-92
2024/02/17 22:38:27;;;;;;;6.82;5.60;;;;;;;;;;5038003;28;20250;-93
2024/02/17 22:40:54;;;;;;;6.53;5.75;;;;;;;;;;5037853;28;20187;-91
2024/02/17 22:43:22;;;;;;;5.82;5.18;;;;;;;;;;5037682;28;20215;-92
2024/02/17 22:45:52;;;;;;;5.75;5.18;;;;;;;;;;5037524;28;20198;-91
2024/02/17 22:48:20;;;;;;;7.60;6.90;;;;;;;;;;5037819;28;20202;-91
2024/02/17 22:50:49;;;;;;;8.77;7.28;;;;;;;;;;5035418;28;20202;-93
2024/02/17 22:53:17;;;;;;;7.78;6.97;;;;;;;;;;5035954;28;20351;-92
2024/02/17 22:55:44;;;;;;;8.35;6.53;;;;;;;;;;5034745;28;20210;-93
2024/02/17 22:58:12;;;;;;;6.80;6.10;;;;;;;;;;5032331;28;20271;-93
2024/02/17 23:00:40;;;;;;;6.55;5.88;;;;;;;;;;5032525;28;20206;-93
2024/02/17 23:03:08;;;;;;;6.53;5.38;;;;;;;;;;5033388;28;20230;-93
2024/02/17 23:05:35;;;;;;;6.80;6.15;;;;;;;;;;5032614;28;20229;-92
2024/02/17 23:08:05;;;;;;;6.47;5.20;;;;;;;;;;5037449;28;20383;-91
2024/02/17 23:10:33;;;;;;;7.47;5.85;;;;;;;;;;5037384;28;20183;-92
2024/02/17 23:13:00;;;;;;;7.00;5.38;;;;;;;;;;5036293;28;20264;-92
2024/02/17 23:15:28;;;;;;;6.68;4.95;;;;;;;;;;5037126;28;20183;-93
2024/02/17 23:17:56;;;;;;;4.57;3.63;;;;;;;;;;5036119;28;20218;-94
2024/02/17 23:20:23;;;;;;;3.42;3.13;;;;;;;;;;5035032;28;20226;-92
2024/02/17 23:22:51;;;;;;;3.55;3.25;;;;;;;;;;5035990;28;20196;-92
2024/02/17 23:25:20;;;;;;;3.75;3.45;;;;;;;;;;5036507;28;20223;-92
2024/02/17 23:27:48;;;;;;;4.45;4.05;;;;;;;;;;5033312;28;20199;-92
2024/02/17 23:30:15;;;;;;;4.35;3.65;;;;;;;;;;5035233;28;20191;-92
2024/02/17 23:32:43;;;;;;;4.22;3.47;;;;;;;;;;5035456;28;20203;-93
2024/02/17 23:35:11;;;;;;;3.63;3.17;;;;;;;;;;5035984;28;20207;-92
2024/02/17 23:37:38;;;;;;;3.88;3.40;;;;;;;;;;5036255;28;20206;-93
2024/02/17 23:40:08;;;;;;;3.35;2.95;;;;;;;;;;5035718;28;20203;-93
2024/02/17 23:42:37;;;;;;;4.63;4.05;;;;;;;;;;5033475;28;20203;-93
2024/02/17 23:45:05;;;;;;;4.53;4.15;;;;;;;;;;5028564;28;20246;-92
2024/02/17 23:47:33;;;;;;;3.58;3.28;;;;;;;;;;5026255;28;20283;-93
2024/02/17 23:50:01;;;;;;;4.78;4.18;;;;;;;;;;5034375;28;20227;-92
2024/02/17 23:52:28;;;;;;;3.35;3.05;;;;;;;;;;5036798;28;20581;-91
2024/02/17 23:54:56;;;;;;;3.17;2.85;;;;;;;;;;5037731;28;20223;-91
2024/02/17 23:57:23;;;;;;;2.55;2.10;;;;;;;;;;5037962;28;20202;-93
2024/02/17 23:59:52;;;;;;;2.25;2.08;;;;;;;;;;5035608;28;20741;-92
